»·PEaware :: SKY633 S59-KSZT

SKY633 :: S59-KSZT

FLIGHT INFORMATION

Flight Status: Arrived
Operator:
Sky High Charters
More flights by this operator :: More flights under this callsign
Pilot: Dean L. (8400)
Aircraft: Unknown
(DA62)
More flights by this aircraft type
Origin: S59 Libby
United States
Destination: KSZT Sandpoint
United States
More flights between these airports :: More routes between these airports
Route: +EYESE1 EYESE V448 CLASS
File this flight plan on PilotEdge
Remarks: SKY HIGH 6
Altitude:
(Current/Filed)
12,000ft
Speed:
(Current/Filed)
180kts
Departed: 05-Jan-19 05:09 PM
Arrived: 05-Jan-19 05:47 PM
Distance/Time
Traveled:
43nm/0:38
Distance/Time
To Go:
Arrived

Flight Plot

Page will automatically refresh every two minutes.

Flight plan parsing failed; only flown route is shown


Map Options




Map Legend


Flown Route
Filed Route
Departure Airport
Arrival Airport
Navaid (VOR, NDB)
Fix

Horizontal Profiles

Position Reports

Time Latitude Longitude Heading Altitude Ground
Speed
05-Jan-19 16:57 48.286192 -115.489227 71 2604ft 0kts
05-Jan-19 16:58 48.286192 -115.489226 71 2604ft 0kts
05-Jan-19 16:59 48.286193 -115.489225 71 2604ft 0kts
05-Jan-19 17:00 48.286193 -115.489224 71 2604ft 0kts
05-Jan-19 17:01 48.286193 -115.489223 71 2604ft 0kts
05-Jan-19 17:03 48.286193 -115.489222 71 2604ft 0kts
05-Jan-19 17:04 48.286194 -115.489221 71 2604ft 0kts
05-Jan-19 17:05 48.286194 -115.489220 71 2604ft 0kts
05-Jan-19 17:06 48.285463 -115.489052 194 2604ft 26kts
05-Jan-19 17:07 48.284566 -115.490168 269 2604ft 13kts
05-Jan-19 17:08 48.289367 -115.492592 108 2604ft 4kts
05-Jan-19 17:09 48.270398 -115.484996 169 3151ft 93kts
05-Jan-19 17:10 48.244334 -115.475410 168 4278ft 97kts
05-Jan-19 17:11 48.217730 -115.465248 169 5330ft 102kts
05-Jan-19 17:12 48.192879 -115.451214 169 6660ft 95kts
05-Jan-19 17:13 48.167618 -115.432942 173 7954ft 101kts
05-Jan-19 17:14 48.141449 -115.414903 181 9283ft 103kts
05-Jan-19 17:15 48.112958 -115.401394 188 10536ft 111kts
05-Jan-19 17:16 48.081223 -115.389099 189 11811ft 124kts
05-Jan-19 17:17 48.037448 -115.378006 188 12005ft 193kts
05-Jan-19 17:18 47.996814 -115.403451 254 12001ft 156kts
05-Jan-19 17:19 47.985319 -115.466230 260 12004ft 158kts
05-Jan-19 17:20 47.973634 -115.529676 260 12002ft 158kts
05-Jan-19 17:21 47.961873 -115.593308 260 12000ft 159kts
05-Jan-19 17:21 47.952067 -115.646217 260 12007ft 159kts
05-Jan-19 17:23 47.938321 -115.720415 259 12007ft 159kts
05-Jan-19 17:24 47.926502 -115.783940 259 12007ft 159kts
05-Jan-19 17:24 47.916583 -115.836724 259 12008ft 159kts
05-Jan-19 17:25 47.904635 -115.900103 259 12011ft 158kts
05-Jan-19 17:27 47.890659 -115.974185 259 12003ft 159kts
05-Jan-19 17:27 47.880689 -116.027038 259 12003ft 158kts
05-Jan-19 17:28 47.868747 -116.090203 259 12003ft 159kts
05-Jan-19 17:29 47.860943 -116.153560 285 12019ft 155kts
05-Jan-19 17:30 47.876339 -116.214522 289 11860ft 163kts
05-Jan-19 17:31 47.894089 -116.279116 288 11267ft 171kts
05-Jan-19 17:32 47.911631 -116.343361 287 10684ft 173kts
05-Jan-19 17:33 47.929939 -116.410424 286 9943ft 179kts
05-Jan-19 17:34 47.949000 -116.480587 284 8946ft 184kts
05-Jan-19 17:35 47.976033 -116.547697 295 7954ft 193kts
05-Jan-19 17:36 48.005727 -116.615286 296 7069ft 192kts
05-Jan-19 17:37 48.033945 -116.679573 295 7031ft 180kts
05-Jan-19 17:38 48.061198 -116.741773 295 7030ft 178kts
05-Jan-19 17:39 48.107872 -116.747812 44 6585ft 230kts
05-Jan-19 17:40 48.158542 -116.693455 30 5839ft 219kts
05-Jan-19 17:41 48.207993 -116.646880 31 4952ft 195kts
05-Jan-19 17:42 48.246580 -116.610298 34 4230ft 130kts
05-Jan-19 17:43 48.275918 -116.582307 35 3207ft 134kts
05-Jan-19 17:44 48.305602 -116.554361 35 2135ft 85kts
05-Jan-19 17:45 48.303429 -116.554751 213 2135ft 84kts
05-Jan-19 17:46 48.297159 -116.560576 206 2134ft 0kts
05-Jan-19 17:47 48.297159 -116.560576 206 2134ft 0kts
05-Jan-19 17:48 48.297159 -116.560576 206 2134ft 0kts
05-Jan-19 17:49 48.297159 -116.560576 206 2134ft 0kts

Navigation Log

Ident Type
Flight plan parsing failed, navigation log unavailable